Time;durP1;ratioP1;P1;durP2;ratioP2;P2;SDS_P1;SDS_P2;PMS_P1;PMS_P2;Temp;Humidity;BMP_temperature;BMP_pressure;BME280_temperature;BME280_humidity;BME280_pressure;Samples;Min_cycle;Max_cycle;Signal;HPM_P1;HPM_P2
2022/03/10 00:02:25;;;;;;;0.00;0.00;;;6.00;92.00;;;;;;5096080;28;20023;-68
2022/03/10 00:04:51;;;;;;;0.00;0.00;;;5.90;91.70;;;;;;5095594;28;20031;-68
2022/03/10 00:07:17;;;;;;;0.00;0.00;;;6.00;92.60;;;;;;5077371;28;20072;-68
2022/03/10 00:09:42;;;;;;;0.00;0.00;;;6.00;92.40;;;;;;5077730;28;20031;-68
2022/03/10 00:12:08;;;;;;;0.00;0.00;;;5.90;90.80;;;;;;5077286;28;20292;-68
2022/03/10 00:14:34;;;;;;;0.00;0.00;;;5.90;89.00;;;;;;5096119;28;20084;-70
2022/03/10 00:16:59;;;;;;;0.00;0.00;;;5.90;89.10;;;;;;5077230;28;20072;-70
2022/03/10 00:19:25;;;;;;;0.00;0.00;;;5.90;87.40;;;;;;5095715;28;20320;-68
2022/03/10 00:21:51;;;;;;;1.55;1.45;;;5.90;86.60;;;;;;5094425;28;20123;-68
2022/03/10 00:24:20;;;;;;;0.95;0.95;;;5.90;86.10;;;;;;5076762;28;20350;-68
2022/03/10 00:26:46;;;;;;;0.13;0.13;;;5.90;87.00;;;;;;5095895;28;20035;-69
2022/03/10 00:29:12;;;;;;;0.47;0.47;;;5.80;86.20;;;;;;5076421;28;20034;-69
2022/03/10 00:31:40;;;;;;;0.82;0.82;;;5.80;86.60;;;;;;5077456;28;20172;-67
2022/03/10 00:34:05;;;;;;;0.00;0.00;;;5.80;87.50;;;;;;5076793;28;20108;-68
2022/03/10 00:36:31;;;;;;;0.00;0.00;;;5.70;87.30;;;;;;5077304;28;20160;-70
2022/03/10 00:38:57;;;;;;;0.00;0.00;;;5.70;88.60;;;;;;5077152;28;20228;-71
2022/03/10 00:41:23;;;;;;;0.00;0.00;;;5.70;87.50;;;;;;5077114;28;20202;-69
2022/03/10 00:43:49;;;;;;;0.57;0.57;;;5.70;88.20;;;;;;5095521;28;20232;-70
2022/03/10 00:46:15;;;;;;;0.82;0.80;;;5.70;85.70;;;;;;5095115;28;20016;-69
2022/03/10 00:48:41;;;;;;;6.03;4.30;;;5.70;86.40;;;;;;5077259;28;20016;-70
2022/03/10 00:51:07;;;;;;;0.00;0.00;;;5.70;85.60;;;;;;5063451;28;20259;-68
2022/03/10 00:53:34;;;;;;;1.75;1.38;;;5.60;86.60;;;;;;5056195;28;20033;-68
2022/03/10 00:56:00;;;;;;;1.00;0.85;;;5.60;86.00;;;;;;5058282;28;20052;-70
2022/03/10 00:58:26;;;;;;;0.00;0.00;;;5.60;86.30;;;;;;5057463;28;20185;-68
2022/03/10 01:00:52;;;;;;;0.00;0.00;;;5.60;87.20;;;;;;5057051;28;20116;-69
2022/03/10 01:03:18;;;;;;;0.00;0.00;;;5.60;86.60;;;;;;5056611;28;20413;-69
2022/03/10 01:05:45;;;;;;;5.85;5.38;;;5.60;86.20;;;;;;5056910;28;20088;-70
2022/03/10 01:08:11;;;;;;;0.00;0.00;;;5.50;86.50;;;;;;5056795;28;20017;-69
2022/03/10 01:10:37;;;;;;;0.00;0.00;;;5.50;87.20;;;;;;5057202;28;20277;-69
2022/03/10 01:13:03;;;;;;;0.10;0.10;;;5.50;88.00;;;;;;5056604;28;20017;-70
2022/03/10 01:15:30;;;;;;;0.55;0.55;;;5.50;87.20;;;;;;5057161;28;20064;-71
2022/03/10 01:17:56;;;;;;;0.00;0.00;;;5.40;86.50;;;;;;5058527;28;20250;-69
2022/03/10 01:20:24;;;;;;;0.00;0.00;;;5.40;87.90;;;;;;5058068;28;20021;-69
2022/03/10 01:22:50;;;;;;;0.17;0.17;;;5.70;86.80;;;;;;5058413;28;20071;-69
2022/03/10 01:25:18;;;;;;;0.00;0.00;;;5.30;86.50;;;;;;5056442;28;20029;-69
2022/03/10 01:27:44;;;;;;;0.00;0.00;;;5.30;86.90;;;;;;5057094;28;20017;-69
2022/03/10 01:30:10;;;;;;;0.70;0.70;;;5.30;86.10;;;;;;5057599;28;20025;-70
2022/03/10 01:32:37;;;;;;;0.40;0.40;;;5.30;88.60;;;;;;5058713;28;20021;-70
2022/03/10 01:35:04;;;;;;;0.00;0.00;;;5.30;87.90;;;;;;5057535;28;20044;-71
2022/03/10 01:37:29;;;;;;;0.00;0.00;;;5.30;88.50;;;;;;5056782;28;20025;-71
2022/03/10 01:39:56;;;;;;;0.00;0.00;;;5.20;88.00;;;;;;5056954;28;20063;-70
2022/03/10 01:42:25;;;;;;;0.00;0.00;;;5.20;88.10;;;;;;5056074;28;20100;-70
2022/03/10 01:44:54;;;;;;;0.00;0.00;;;5.20;87.20;;;;;;5057831;28;20153;-70
2022/03/10 01:47:38;;;;;;;0.00;0.00;;;5.20;87.30;;;;;;5056506;28;20025;-71
2022/03/10 01:50:06;;;;;;;0.32;0.32;;;5.10;87.30;;;;;;5057712;28;20040;-70
2022/03/10 01:52:32;;;;;;;0.30;0.30;;;5.10;86.60;;;;;;5056616;28;20041;-69
2022/03/10 01:54:59;;;;;;;1.00;1.00;;;5.10;86.20;;;;;;5056209;28;20097;-72
2022/03/10 01:57:47;;;;;;;0.00;0.00;;;5.10;86.20;;;;;;5056584;28;20046;-71
2022/03/10 02:03:33;;;;;;;0.00;0.00;;;5.00;87.00;;;;;;4995359;28;20018;-69
2022/03/10 02:05:59;;;;;;;0.00;0.00;;;5.00;86.80;;;;;;5049773;28;20156;-71
2022/03/10 02:11:10;;;;;;;0.00;0.00;;;4.90;87.40;;;;;;5056885;28;20032;-72
2022/03/10 02:13:35;;;;;;;0.00;0.00;;;4.90;87.60;;;;;;5057800;28;20073;-70
2022/03/10 02:18:45;;;;;;;0.00;0.00;;;4.90;87.00;;;;;;5057744;28;20239;-68
2022/03/10 02:21:11;;;;;;;0.32;0.32;;;4.90;86.80;;;;;;5066981;22;20271;-74
2022/03/10 02:23:37;;;;;;;0.00;0.00;;;4.80;88.80;;;;;;5035138;28;20033;-72
2022/03/10 02:26:04;;;;;;;0.00;0.00;;;4.80;87.40;;;;;;5036850;28;20296;-71
2022/03/10 02:28:32;;;;;;;0.00;0.00;;;4.80;87.90;;;;;;5032983;28;20068;-72
2022/03/10 02:30:58;;;;;;;0.03;0.03;;;4.80;89.30;;;;;;5032705;28;20037;-72
2022/03/10 02:33:42;;;;;;;0.43;0.43;;;4.80;87.30;;;;;;5035210;28;20089;-73
2022/03/10 02:36:08;;;;;;;0.00;0.00;;;4.80;87.80;;;;;;5032437;28;20025;-73
2022/03/10 02:38:34;;;;;;;0.35;0.35;;;4.80;87.50;;;;;;5035284;28;20216;-74
2022/03/10 02:41:18;;;;;;;0.00;0.00;;;4.80;87.30;;;;;;5037239;28;20231;-72
2022/03/10 02:43:44;;;;;;;0.17;0.17;;;4.80;87.10;;;;;;5019608;28;20029;-72
2022/03/10 02:46:10;;;;;;;0.00;0.00;;;4.70;87.30;;;;;;5017381;28;20083;-74
2022/03/10 02:48:36;;;;;;;2.17;2.08;;;4.70;88.20;;;;;;5019856;28;20021;-75
2022/03/10 02:51:01;;;;;;;0.00;0.00;;;4.80;88.10;;;;;;5036015;28;20026;-76
2022/03/10 02:53:27;;;;;;;0.00;0.00;;;4.70;87.40;;;;;;5020209;28;20060;-75
2022/03/10 02:55:53;;;;;;;0.00;0.00;;;4.70;88.20;;;;;;5035819;28;20037;-75
2022/03/10 02:58:19;;;;;;;0.00;0.00;;;4.70;87.70;;;;;;5038915;28;20080;-71
2022/03/10 03:00:45;;;;;;;0.00;0.00;;;4.70;88.70;;;;;;5035771;28;20025;-72
2022/03/10 03:03:11;;;;;;;0.00;0.00;;;4.70;89.00;;;;;;5036954;28;20116;-70
2022/03/10 03:05:37;;;;;;;0.00;0.00;;;4.70;88.70;;;;;;5032665;28;20028;-71
2022/03/10 03:08:03;;;;;;;0.00;0.00;;;4.60;90.10;;;;;;5036475;28;20037;-71
2022/03/10 03:10:28;;;;;;;0.00;0.00;;;4.70;90.80;;;;;;5041058;28;20045;-71
2022/03/10 03:12:55;;;;;;;1.77;0.38;;;4.60;90.20;;;;;;5032145;28;20022;-71
2022/03/10 03:15:21;;;;;;;0.00;0.00;;;4.60;88.90;;;;;;5031542;28;20052;-71
2022/03/10 03:17:47;;;;;;;2.38;2.28;;;4.60;89.20;;;;;;5039449;28;20025;-72
2022/03/10 03:20:14;;;;;;;0.00;0.00;;;4.60;89.10;;;;;;5032007;28;20292;-72
2022/03/10 03:22:44;;;;;;;0.00;0.00;;;4.60;89.20;;;;;;5032336;28;20057;-71
2022/03/10 03:25:14;;;;;;;0.20;0.20;;;4.70;90.20;;;;;;5031771;28;20033;-72
2022/03/10 03:27:41;;;;;;;0.15;0.15;;;4.60;89.10;;;;;;5045218;28;20048;-70
2022/03/10 03:30:07;;;;;;;0.00;0.00;;;4.70;89.10;;;;;;5023278;28;20226;-72
2022/03/10 03:32:33;;;;;;;0.00;0.00;;;4.70;89.10;;;;;;5024394;28;20036;-72
2022/03/10 03:34:59;;;;;;;0.00;0.00;;;4.60;89.30;;;;;;5034980;28;20029;-72
2022/03/10 03:37:25;;;;;;;2.92;2.72;;;4.60;90.10;;;;;;5025043;28;20307;-73
2022/03/10 03:39:51;;;;;;;0.00;0.00;;;4.70;90.80;;;;;;5034580;28;20033;-72
2022/03/10 03:42:16;;;;;;;0.00;0.00;;;4.60;90.90;;;;;;5036017;28;20083;-73
2022/03/10 03:44:42;;;;;;;0.13;0.13;;;4.60;90.40;;;;;;5037852;28;20033;-74
2022/03/10 03:47:08;;;;;;;11.95;11.10;;;4.60;89.60;;;;;;5040799;28;20089;-75
2022/03/10 03:49:34;;;;;;;0.00;0.00;;;4.60;90.20;;;;;;5037800;28;20025;-75
2022/03/10 03:51:59;;;;;;;0.00;0.00;;;4.60;90.30;;;;;;5036024;28;20221;-73
2022/03/10 03:54:25;;;;;;;0.00;0.00;;;4.50;90.00;;;;;;5032190;28;20212;-74
2022/03/10 03:56:51;;;;;;;0.00;0.00;;;4.50;89.80;;;;;;5036492;28;20038;-72
2022/03/10 03:59:17;;;;;;;0.00;0.00;;;4.50;90.30;;;;;;5041997;28;20045;-74
2022/03/10 04:01:42;;;;;;;0.00;0.00;;;4.50;90.50;;;;;;5031619;28;20029;-73
2022/03/10 04:04:08;;;;;;;0.30;0.30;;;4.50;91.00;;;;;;5035496;28;20021;-71
2022/03/10 04:06:34;;;;;;;0.30;0.30;;;4.50;90.00;;;;;;5035773;28;20060;-71
2022/03/10 04:09:00;;;;;;;0.00;0.00;;;4.50;90.60;;;;;;5017915;28;20017;-71
2022/03/10 04:11:25;;;;;;;0.00;0.00;;;4.50;90.90;;;;;;5032277;28;20040;-72
2022/03/10 04:13:51;;;;;;;0.00;0.00;;;4.50;90.60;;;;;;5036631;28;20026;-71
2022/03/10 04:16:18;;;;;;;0.00;0.00;;;4.50;90.50;;;;;;5032444;28;20045;-72
2022/03/10 04:18:43;;;;;;;0.00;0.00;;;4.50;89.90;;;;;;5039306;28;20053;-72
2022/03/10 04:21:09;;;;;;;0.00;0.00;;;4.40;91.10;;;;;;5030859;28;20293;-71
2022/03/10 04:23:35;;;;;;;0.00;0.00;;;4.50;92.20;;;;;;5034880;28;20040;-72
2022/03/10 04:26:00;;;;;;;0.00;0.00;;;4.40;90.50;;;;;;5034288;28;20045;-75
2022/03/10 04:28:26;;;;;;;0.00;0.00;;;4.50;89.80;;;;;;5039562;28;20087;-74
2022/03/10 04:30:52;;;;;;;0.00;0.00;;;4.50;90.20;;;;;;5037527;28;20029;-72
2022/03/10 04:33:18;;;;;;;0.98;0.98;;;4.40;91.10;;;;;;5035807;28;20128;-77
2022/03/10 04:35:44;;;;;;;1.75;1.65;;;4.40;90.90;;;;;;5039263;28;20037;-79
2022/03/10 04:38:10;;;;;;;0.10;0.10;;;4.40;90.30;;;;;;5034592;28;20399;-73
2022/03/10 04:40:37;;;;;;;0.00;0.00;;;4.40;91.00;;;;;;5034791;28;20101;-75
2022/03/10 04:43:03;;;;;;;0.00;0.00;;;4.30;91.50;;;;;;5034366;28;20041;-76
2022/03/10 04:45:28;;;;;;;0.00;0.00;;;4.30;92.10;;;;;;5043792;28;20385;-74
2022/03/10 04:47:54;;;;;;;0.00;0.00;;;4.30;92.40;;;;;;5043376;28;20301;-74
2022/03/10 04:50:20;;;;;;;0.00;0.00;;;4.30;92.40;;;;;;5034324;28;20034;-76
2022/03/10 04:52:46;;;;;;;0.00;0.00;;;4.30;91.10;;;;;;5041585;28;20207;-75
2022/03/10 04:55:13;;;;;;;0.00;0.00;;;4.20;92.00;;;;;;5039734;28;20131;-77
2022/03/10 04:57:40;;;;;;;0.00;0.00;;;4.20;91.90;;;;;;5042973;28;20359;-72
2022/03/10 05:00:10;;;;;;;0.35;0.35;;;4.20;92.00;;;;;;5038514;28;20033;-74
2022/03/10 05:02:38;;;;;;;0.30;0.30;;;4.20;91.40;;;;;;5040453;28;20101;-72
2022/03/10 05:05:04;;;;;;;0.00;0.00;;;4.20;91.60;;;;;;5040404;28;20033;-72
2022/03/10 05:07:30;;;;;;;0.00;0.00;;;4.20;93.00;;;;;;5034821;28;20034;-72
2022/03/10 05:09:56;;;;;;;0.00;0.00;;;4.20;94.00;;;;;;5040576;28;20331;-72
2022/03/10 05:12:22;;;;;;;0.00;0.00;;;4.20;93.40;;;;;;5023483;28;20053;-72
2022/03/10 05:14:47;;;;;;;0.00;0.00;;;4.30;93.60;;;;;;5040561;28;20312;-72
2022/03/10 05:17:14;;;;;;;0.00;0.00;;;4.30;94.10;;;;;;5034644;28;20224;-71
2022/03/10 05:19:40;;;;;;;0.32;0.32;;;4.50;92.00;;;;;;5034980;28;20029;-72
2022/03/10 05:22:05;;;;;;;0.85;0.85;;;4.60;92.70;;;;;;5038602;28;20111;-72
2022/03/10 05:24:31;;;;;;;0.52;0.52;;;4.60;92.80;;;;;;5035702;28;20055;-72
2022/03/10 05:29:41;;;;;;;0.20;0.20;;;4.60;93.60;;;;;;5039975;28;20044;-72
2022/03/10 05:32:10;;;;;;;0.00;0.00;;;4.60;92.90;;;;;;5025027;28;20300;-74
2022/03/10 05:34:37;;;;;;;0.08;0.08;;;4.70;92.40;;;;;;5040495;28;20029;-77
2022/03/10 05:37:03;;;;;;;0.05;0.05;;;4.70;91.90;;;;;;5037105;28;20029;-77
2022/03/10 05:39:29;;;;;;;0.00;0.00;;;4.70;92.90;;;;;;5036806;28;20032;-74
2022/03/10 05:41:54;;;;;;;0.00;0.00;;;4.70;92.20;;;;;;5040232;28;20025;-72
2022/03/10 05:44:20;;;;;;;0.00;0.00;;;4.70;92.00;;;;;;5020352;28;20041;-72
2022/03/10 05:46:46;;;;;;;1.60;1.08;;;4.70;91.40;;;;;;5036965;28;20029;-71
2022/03/10 05:49:11;;;;;;;0.45;0.45;;;4.80;90.70;;;;;;5019029;28;20079;-76
2022/03/10 05:51:37;;;;;;;0.90;0.90;;;4.80;91.10;;;;;;5038198;28;20033;-76
2022/03/10 05:54:03;;;;;;;0.00;0.00;;;4.80;91.60;;;;;;5039815;28;20288;-77
2022/03/10 05:56:29;;;;;;;1.35;1.25;;;4.80;93.20;;;;;;5039774;28;20041;-71
2022/03/10 05:58:55;;;;;;;0.05;0.05;;;4.70;91.60;;;;;;5038138;28;20025;-71
2022/03/10 06:01:21;;;;;;;0.00;0.00;;;4.80;91.40;;;;;;5038321;28;20032;-72
2022/03/10 06:03:46;;;;;;;0.00;0.00;;;4.70;92.70;;;;;;5040217;28;20029;-74
2022/03/10 06:06:13;;;;;;;0.00;0.00;;;4.80;92.90;;;;;;5032262;28;20085;-73
2022/03/10 06:08:39;;;;;;;0.20;0.00;;;4.70;92.90;;;;;;5022240;28;20028;-73
2022/03/10 06:11:07;;;;;;;0.00;0.00;;;4.70;93.50;;;;;;5040156;28;20028;-72
2022/03/10 06:13:33;;;;;;;0.00;0.00;;;4.70;94.20;;;;;;5038519;28;20029;-72
2022/03/10 06:15:58;;;;;;;0.90;0.65;;;4.70;93.40;;;;;;5039919;28;20053;-72
2022/03/10 06:18:24;;;;;;;0.00;0.00;;;4.80;92.00;;;;;;5021685;28;20021;-72
2022/03/10 06:20:50;;;;;;;0.00;0.00;;;4.80;93.20;;;;;;5036780;28;20057;-71
2022/03/10 06:23:15;;;;;;;0.00;0.00;;;4.80;93.50;;;;;;5034537;28;20017;-71
2022/03/10 06:25:41;;;;;;;0.05;0.05;;;4.90;92.40;;;;;;5036678;28;20102;-71
2022/03/10 06:28:08;;;;;;;0.00;0.00;;;4.90;93.80;;;;;;5019289;28;20067;-74
2022/03/10 06:30:34;;;;;;;0.28;0.28;;;5.00;93.40;;;;;;5037169;28;20022;-72
2022/03/10 06:35:44;;;;;;;0.80;0.80;;;5.00;93.50;;;;;;5037234;28;20264;-72
2022/03/10 06:38:10;;;;;;;0.20;0.20;;;5.10;92.90;;;;;;5020368;28;20578;-72
2022/03/10 06:40:36;;;;;;;0.00;0.00;;;5.10;93.00;;;;;;5019585;28;20029;-73
2022/03/10 06:43:02;;;;;;;0.00;0.00;;;5.10;93.90;;;;;;5019988;28;20025;-72
2022/03/10 06:45:27;;;;;;;0.13;0.13;;;5.10;95.20;;;;;;5019918;28;20540;-72
2022/03/10 06:47:53;;;;;;;0.00;0.00;;;5.10;95.40;;;;;;5039284;28;20534;-71
2022/03/10 06:50:19;;;;;;;2.63;2.42;;;5.20;94.80;;;;;;5036789;28;20104;-72
2022/03/10 06:52:45;;;;;;;0.20;0.20;;;5.30;94.70;;;;;;5040947;28;20029;-74
2022/03/10 06:55:10;;;;;;;0.00;0.00;;;5.30;94.70;;;;;;5037455;28;20025;-74
2022/03/10 06:57:36;;;;;;;0.90;0.90;;;5.40;96.00;;;;;;5037243;28;20075;-72
2022/03/10 07:00:05;;;;;;;0.00;0.00;;;5.40;95.60;;;;;;5031537;28;20021;-73
2022/03/10 07:02:30;;;;;;;0.00;0.00;;;5.50;96.00;;;;;;5021809;28;20036;-73
2022/03/10 07:04:57;;;;;;;0.52;0.45;;;5.50;96.60;;;;;;5038562;28;20033;-72
2022/03/10 07:07:22;;;;;;;0.63;0.47;;;5.60;96.40;;;;;;5036672;28;20043;-71
2022/03/10 07:09:48;;;;;;;0.00;0.00;;;5.60;95.80;;;;;;5037024;28;20417;-72
2022/03/10 07:12:14;;;;;;;0.08;0.08;;;5.70;96.10;;;;;;5037581;28;20114;-71
2022/03/10 07:14:40;;;;;;;0.38;0.38;;;5.70;96.40;;;;;;5036377;28;20029;-72
2022/03/10 07:17:06;;;;;;;2.47;2.28;;;5.80;96.90;;;;;;5032248;28;20028;-71
2022/03/10 07:19:32;;;;;;;0.00;0.00;;;5.80;96.50;;;;;;5033191;28;20216;-72
2022/03/10 07:21:57;;;;;;;0.00;0.00;;;6.00;97.70;;;;;;5019714;28;20046;-71
2022/03/10 07:24:25;;;;;;;0.00;0.00;;;6.00;97.50;;;;;;5036582;28;20033;-71
2022/03/10 07:26:51;;;;;;;0.13;0.13;;;6.20;97.00;;;;;;5037818;28;20020;-71
2022/03/10 07:29:17;;;;;;;0.22;0.22;;;6.30;96.80;;;;;;5036394;28;20037;-71
2022/03/10 07:32:02;;;;;;;0.00;0.00;;;6.40;94.70;;;;;;5037480;28;20028;-71
2022/03/10 07:34:27;;;;;;;0.00;0.00;;;6.50;96.50;;;;;;5040121;28;20215;-73
2022/03/10 07:36:53;;;;;;;0.00;0.00;;;6.50;96.10;;;;;;5018128;28;20368;-71
2022/03/10 07:39:19;;;;;;;1.27;1.17;;;6.50;95.70;;;;;;5020354;28;20199;-72
2022/03/10 07:41:45;;;;;;;0.10;0.03;;;6.60;96.40;;;;;;5032395;28;20208;-72
2022/03/10 07:44:11;;;;;;;2.55;2.30;;;6.60;96.30;;;;;;5038871;28;20024;-74
2022/03/10 07:46:36;;;;;;;0.03;0.03;;;6.70;92.90;;;;;;5036148;28;20017;-72
2022/03/10 07:49:04;;;;;;;0.00;0.00;;;6.80;95.20;;;;;;5034278;28;20067;-72
2022/03/10 07:51:29;;;;;;;1.27;0.20;;;6.80;95.30;;;;;;5032949;28;20029;-72
2022/03/10 07:53:55;;;;;;;0.35;0.35;;;6.90;94.80;;;;;;5032449;28;20067;-71
2022/03/10 07:56:21;;;;;;;0.10;0.10;;;6.80;95.60;;;;;;5034805;28;20094;-71
2022/03/10 07:58:47;;;;;;;0.45;0.45;;;6.90;95.70;;;;;;5028305;28;20229;-72
2022/03/10 08:01:12;;;;;;;0.10;0.00;;;6.90;96.10;;;;;;5022726;28;20384;-73
2022/03/10 08:03:39;;;;;;;0.00;0.00;;;6.90;95.20;;;;;;5034636;28;20124;-70
2022/03/10 08:06:05;;;;;;;0.00;0.00;;;6.90;94.30;;;;;;5023910;28;20304;-72
2022/03/10 08:08:31;;;;;;;0.25;0.25;;;6.90;95.30;;;;;;5037104;28;20044;-73
2022/03/10 08:10:57;;;;;;;0.63;0.63;;;6.90;94.10;;;;;;5021881;28;20025;-72
2022/03/10 08:13:26;;;;;;;0.55;0.47;;;6.90;94.90;;;;;;5040847;28;20094;-72
2022/03/10 08:15:55;;;;;;;0.00;0.00;;;6.90;95.90;;;;;;5041888;28;20315;-72
2022/03/10 08:18:21;;;;;;;0.00;0.00;;;6.80;95.20;;;;;;5021800;28;20033;-73
2022/03/10 08:20:47;;;;;;;1.33;0.80;;;6.80;94.20;;;;;;5042101;28;20108;-72
2022/03/10 08:23:13;;;;;;;0.10;0.10;;;6.80;94.50;;;;;;5034340;28;20159;-73
2022/03/10 08:25:39;;;;;;;0.00;0.00;;;6.70;95.80;;;;;;5040126;28;20257;-73
2022/03/10 08:28:05;;;;;;;0.00;0.00;;;6.70;96.10;;;;;;5021440;28;20017;-71
2022/03/10 08:30:31;;;;;;;0.43;0.43;;;6.60;96.40;;;;;;5039894;28;20017;-71
2022/03/10 08:32:57;;;;;;;2.08;0.88;;;6.60;94.40;;;;;;5038699;28;20036;-72
2022/03/10 08:35:24;;;;;;;2.85;2.65;;;6.60;94.40;;;;;;5037919;28;20115;-74
2022/03/10 08:37:50;;;;;;;0.00;0.00;;;6.60;94.80;;;;;;5035206;28;20087;-74
2022/03/10 08:40:19;;;;;;;1.15;1.10;;;6.60;94.10;;;;;;5020942;28;20515;-72
2022/03/10 08:42:46;;;;;;;1.65;1.35;;;6.60;95.50;;;;;;5040860;28;20132;-71
2022/03/10 08:45:12;;;;;;;0.95;0.70;;;6.60;93.80;;;;;;5033592;28;20308;-72
2022/03/10 08:47:38;;;;;;;0.00;0.00;;;6.70;93.90;;;;;;5039309;28;20347;-70
2022/03/10 08:50:04;;;;;;;0.65;0.65;;;6.70;95.30;;;;;;5042737;28;20083;-70
2022/03/10 08:52:30;;;;;;;1.35;0.52;;;6.70;95.20;;;;;;5040669;28;20024;-71
2022/03/10 08:54:56;;;;;;;0.00;0.00;;;6.70;95.10;;;;;;5023131;28;20251;-73
2022/03/10 08:57:22;;;;;;;0.00;0.00;;;6.70;95.30;;;;;;5036041;28;20033;-71
2022/03/10 08:59:48;;;;;;;0.00;0.00;;;6.70;95.90;;;;;;5042912;28;20029;-71
2022/03/10 09:02:14;;;;;;;0.22;0.22;;;6.70;94.50;;;;;;5044552;28;20191;-70
2022/03/10 09:04:40;;;;;;;0.00;0.00;;;6.70;93.50;;;;;;5038568;28;20033;-72
2022/03/10 09:07:05;;;;;;;0.52;0.52;;;6.70;95.50;;;;;;5034951;28;20017;-71
2022/03/10 09:09:31;;;;;;;0.10;0.03;;;6.80;96.00;;;;;;5040879;28;20173;-72
2022/03/10 09:11:57;;;;;;;0.00;0.00;;;6.90;95.10;;;;;;5039544;28;20211;-70
2022/03/10 09:14:23;;;;;;;0.00;0.00;;;6.90;95.90;;;;;;5024507;28;20769;-71
2022/03/10 09:16:51;;;;;;;0.00;0.00;;;6.90;95.20;;;;;;5038637;28;20025;-70
2022/03/10 09:19:17;;;;;;;0.00;0.00;;;6.90;96.50;;;;;;5038750;28;20117;-73
2022/03/10 09:21:43;;;;;;;0.00;0.00;;;6.90;96.30;;;;;;5023217;28;20053;-69
2022/03/10 09:24:09;;;;;;;0.00;0.00;;;6.90;95.40;;;;;;5012177;28;20219;-73
2022/03/10 09:26:35;;;;;;;0.00;0.00;;;6.80;93.50;;;;;;5021379;28;20018;-72
2022/03/10 09:29:01;;;;;;;0.00;0.00;;;6.80;95.40;;;;;;5015766;28;20020;-70
2022/03/10 09:31:27;;;;;;;0.00;0.00;;;6.80;96.00;;;;;;5022849;28;20088;-70
2022/03/10 09:33:53;;;;;;;0.00;0.00;;;6.80;96.00;;;;;;5018893;28;20041;-70
2022/03/10 09:36:19;;;;;;;0.80;0.80;;;6.90;95.90;;;;;;5001342;28;20030;-71
2022/03/10 09:38:45;;;;;;;1.35;0.30;;;7.00;94.80;;;;;;5018667;28;20328;-71
2022/03/10 09:41:12;;;;;;;0.00;0.00;;;7.20;96.30;;;;;;5024619;28;20100;-71
2022/03/10 09:43:39;;;;;;;1.45;1.40;;;7.20;95.20;;;;;;5016219;28;20128;-72
2022/03/10 09:46:08;;;;;;;1.13;0.47;;;7.30;95.20;;;;;;5021560;28;20065;-72
2022/03/10 09:48:35;;;;;;;0.00;0.00;;;7.40;93.30;;;;;;5023241;28;20024;-71
2022/03/10 09:51:01;;;;;;;0.85;0.52;;;7.40;92.80;;;;;;5016402;28;20148;-71
2022/03/10 09:53:30;;;;;;;0.00;0.00;;;7.50;90.50;;;;;;5001551;28;20308;-74
2022/03/10 09:55:55;;;;;;;;;;;7.60;94.70;;;;;;5015053;28;20053;-73
2022/03/10 09:58:21;;;;;;;0.00;0.00;;;7.50;94.40;;;;;;5019235;28;19913;-71
2022/03/10 10:00:47;;;;;;;0.00;0.00;;;7.60;90.60;;;;;;5014527;28;20027;-72
2022/03/10 10:03:13;;;;;;;0.00;0.00;;;7.60;91.60;;;;;;5003206;28;20022;-71
2022/03/10 10:05:40;;;;;;;0.10;0.10;;;7.50;90.60;;;;;;5020132;28;20617;-69
2022/03/10 10:08:17;;;;;;;1.30;0.85;;;7.50;92.70;;;;;;5021692;28;20135;-72
2022/03/10 10:10:56;;;;;;;0.00;0.00;;;7.50;90.50;;;;;;5018023;28;20078;-73
2022/03/10 10:13:27;;;;;;;;;;;7.60;91.30;;;;;;5019641;28;20033;-73
2022/03/10 10:15:59;;;;;;;0.00;0.00;;;7.50;90.90;;;;;;5019293;28;19913;-72
2022/03/10 10:18:25;;;;;;;0.28;0.28;;;7.50;92.40;;;;;;5001477;28;20367;-71
2022/03/10 10:20:52;;;;;;;0.15;0.08;;;7.40;93.80;;;;;;5012736;28;20053;-72
2022/03/10 10:23:21;;;;;;;0.10;0.10;;;7.40;94.10;;;;;;5013761;28;20342;-71
2022/03/10 10:26:08;;;;;;;0.00;0.00;;;7.50;90.80;;;;;;5012923;28;20095;-73
2022/03/10 10:28:41;;;;;;;0.00;0.00;;;7.50;91.30;;;;;;5017993;28;20029;-74
2022/03/10 10:31:12;;;;;;;0.05;0.00;;;7.60;92.60;;;;;;5023320;28;20037;-73
2022/03/10 10:33:41;;;;;;;0.10;0.10;;;7.70;92.60;;;;;;5024250;28;20267;-71
2022/03/10 10:36:17;;;;;;;6.35;2.70;;;7.90;91.50;;;;;;5022457;28;20035;-73
2022/03/10 10:38:48;;;;;;;0.00;0.00;;;8.00;86.80;;;;;;5002350;28;20049;-74
2022/03/10 10:41:15;;;;;;;0.00;0.00;;;8.00;90.90;;;;;;5021522;28;20029;-73
2022/03/10 10:43:49;;;;;;;0.00;0.00;;;8.00;91.70;;;;;;5020345;28;20022;-72
2022/03/10 10:46:28;;;;;;;0.00;0.00;;;8.00;92.80;;;;;;5004158;28;20250;-72
2022/03/10 10:48:55;;;;;;;0.20;0.20;;;8.10;91.30;;;;;;5019702;28;20018;-73
2022/03/10 10:51:39;;;;;;;0.45;0.45;;;8.20;90.30;;;;;;5021884;28;20022;-72
2022/03/10 10:54:10;;;;;;;0.10;0.10;;;8.30;90.00;;;;;;5018223;28;20289;-74
2022/03/10 10:56:46;;;;;;;0.15;0.15;;;8.20;91.20;;;;;;5020823;28;20018;-71
2022/03/10 10:59:31;;;;;;;0.00;0.00;;;8.20;90.00;;;;;;5020231;28;20306;-72
2022/03/10 11:02:20;;;;;;;0.45;0.45;;;8.20;85.20;;;;;;5017344;28;20037;-71
2022/03/10 11:04:49;;;;;;;0.10;0.10;;;8.20;90.50;;;;;;5001378;28;20021;-75
2022/03/10 11:07:16;;;;;;;0.43;0.43;;;8.10;90.50;;;;;;5017790;28;20187;-72
2022/03/10 11:09:43;;;;;;;0.75;0.25;;;8.20;83.90;;;;;;5016776;28;20033;-74
2022/03/10 11:12:13;;;;;;;11.95;3.85;;;8.20;80.60;;;;;;5016833;28;20017;-75
2022/03/10 11:14:39;;;;;;;0.22;0.17;;;8.30;90.90;;;;;;5018540;28;20037;-71
2022/03/10 11:17:05;;;;;;;0.35;0.35;;;8.50;85.60;;;;;;5018399;28;20033;-73
2022/03/10 11:19:35;;;;;;;0.00;0.00;;;8.80;87.50;;;;;;5018418;28;20169;-73
2022/03/10 11:22:19;;;;;;;3.15;0.85;;;8.80;82.90;;;;;;5011641;28;20049;-75
2022/03/10 11:25:03;;;;;;;0.00;0.00;;;9.10;83.70;;;;;;5017790;28;20037;-70
2022/03/10 11:27:39;;;;;;;0.00;0.00;;;9.70;89.80;;;;;;5018473;28;20020;-73
2022/03/10 11:30:07;;;;;;;1.05;0.10;;;9.80;89.50;;;;;;5019145;28;20076;-75
2022/03/10 11:32:32;;;;;;;0.15;0.13;;;9.80;82.80;;;;;;5001975;28;20296;-74
2022/03/10 11:35:00;;;;;;;0.75;0.75;;;9.60;77.70;;;;;;4999489;28;20048;-70
2022/03/10 11:37:36;;;;;;;3.28;0.80;;;9.70;89.40;;;;;;5018380;28;20024;-71
2022/03/10 11:40:04;;;;;;;1.85;0.80;;;10.00;83.30;;;;;;5017941;28;20084;-74
2022/03/10 11:42:31;;;;;;;0.00;0.00;;;10.30;78.20;;;;;;5020655;28;20706;-76
2022/03/10 11:45:06;;;;;;;0.13;0.13;;;10.50;81.20;;;;;;5018921;28;20033;-72
2022/03/10 11:47:31;;;;;;;0.00;0.00;;;10.70;86.10;;;;;;5011184;28;20017;-73
2022/03/10 11:50:17;;;;;;;0.10;0.10;;;10.90;84.50;;;;;;5010447;28;20041;-70
2022/03/10 11:52:43;;;;;;;0.57;0.57;;;11.00;79.60;;;;;;5001162;28;20026;-73
2022/03/10 11:55:12;;;;;;;0.70;0.65;;;11.00;77.00;;;;;;5018659;28;20021;-73
2022/03/10 11:57:43;;;;;;;0.30;0.30;;;10.90;64.60;;;;;;5019196;28;20054;-72
2022/03/10 12:00:09;;;;;;;0.00;0.00;;;10.80;74.40;;;;;;5016789;28;20030;-71
2022/03/10 12:02:40;;;;;;;0.00;0.00;;;10.80;75.40;;;;;;5012256;28;20325;-79
2022/03/10 12:05:07;;;;;;;1.45;0.38;;;10.90;77.10;;;;;;5017901;28;20025;-72
2022/03/10 12:07:34;;;;;;;0.00;0.00;;;10.90;67.50;;;;;;5020212;28;20025;-72
2022/03/10 12:10:13;;;;;;;0.10;0.10;;;10.80;67.20;;;;;;5015535;28;20026;-72
2022/03/10 12:12:49;;;;;;;0.52;0.43;;;10.90;78.30;;;;;;5017458;28;20625;-73
2022/03/10 12:15:26;;;;;;;0.00;0.00;;;10.80;70.70;;;;;;5017239;28;20061;-74
2022/03/10 12:17:54;;;;;;;0.00;0.00;;;10.90;76.60;;;;;;5017785;28;20351;-73
2022/03/10 12:20:45;;;;;;;0.05;0.05;;;10.90;73.90;;;;;;5011254;28;20132;-73
2022/03/10 12:23:19;;;;;;;1.20;0.65;;;11.00;76.50;;;;;;5017935;28;20092;-72
2022/03/10 12:25:51;;;;;;;0.00;0.00;;;11.00;67.40;;;;;;5020590;28;20026;-73
2022/03/10 12:28:24;;;;;;;1.38;0.85;;;11.00;79.50;;;;;;5016722;28;20029;-72
2022/03/10 12:31:12;;;;;;;8.55;7.75;;;10.90;67.10;;;;;;5018611;28;20096;-71
2022/03/10 12:33:46;;;;;;;;;;;10.80;77.30;;;;;;5001432;28;20104;-73
2022/03/10 12:36:13;;;;;;;0.00;0.00;;;10.60;78.20;;;;;;5019253;28;19951;-74
2022/03/10 12:38:44;;;;;;;1.00;1.00;;;10.40;74.80;;;;;;5003247;28;20029;-74
2022/03/10 12:41:10;;;;;;;0.20;0.20;;;10.30;72.00;;;;;;5018903;28;20334;-72
2022/03/10 12:43:35;;;;;;;0.00;0.00;;;10.20;77.90;;;;;;5000285;28;20034;-74
2022/03/10 12:46:02;;;;;;;0.30;0.10;;;10.10;76.50;;;;;;5016495;28;20368;-75
2022/03/10 12:49:00;;;;;;;0.00;0.00;;;9.90;67.90;;;;;;5019791;28;20025;-74
2022/03/10 12:51:28;;;;;;;;;;;9.90;73.50;;;;;;4986750;28;20041;-73
2022/03/10 12:53:55;;;;;;;0.20;0.10;;;9.80;77.90;;;;;;5022960;28;19991;-74
2022/03/10 12:56:21;;;;;;;0.10;0.10;;;9.70;79.20;;;;;;5021668;28;20033;-75
2022/03/10 12:58:48;;;;;;;0.00;0.00;;;9.70;77.50;;;;;;5022420;28;20084;-75
2022/03/10 13:01:15;;;;;;;0.00;0.00;;;9.50;73.00;;;;;;5021111;28;20088;-74
2022/03/10 13:03:50;;;;;;;0.00;0.00;;;9.50;72.60;;;;;;5022587;28;20092;-74
2022/03/10 13:06:17;;;;;;;1.38;0.28;;;9.40;73.20;;;;;;5021384;28;20024;-71
2022/03/10 13:08:59;;;;;;;0.57;0.43;;;9.30;65.50;;;;;;5015636;28;20022;-69
2022/03/10 13:11:33;;;;;;;0.20;0.10;;;9.20;75.60;;;;;;5021772;28;20017;-70
2022/03/10 13:14:07;;;;;;;0.00;0.00;;;9.10;77.30;;;;;;5021878;28;20022;-69
2022/03/10 13:16:34;;;;;;;0.00;0.00;;;9.00;73.70;;;;;;5021182;28;20034;-72